Time;durP1;ratioP1;P1;durP2;ratioP2;P2;SDS_P1;SDS_P2;PMS_P1;PMS_P2;Temp;Humidity;BMP_temperature;BMP_pressure;BME280_temperature;BME280_humidity;BME280_pressure;Samples;Min_cycle;Max_cycle;Signal;HPM_P1;HPM_P2
2022/06/04 00:01:30;;;;;;;6.40;5.80;;;16.60;99.90;;;;;;5089332;28;20772;-87
2022/06/04 00:03:57;;;;;;;4.90;4.10;;;16.40;99.90;;;;;;5098210;28;20726;-85
2022/06/04 00:06:24;;;;;;;5.27;4.63;;;16.30;99.90;;;;;;5106281;28;20662;-88
2022/06/04 00:08:52;;;;;;;6.77;4.80;;;16.40;99.90;;;;;;5099262;28;20623;-85
2022/06/04 00:16:51;;;;;;;5.60;4.50;;;16.40;99.90;;;;;;5097370;28;20638;-86
2022/06/04 00:19:19;;;;;;;5.43;4.80;;;16.30;99.90;;;;;;5105875;28;20655;-85
2022/06/04 00:21:48;;;;;;;6.70;4.70;;;16.20;99.90;;;;;;5091171;28;20677;-86
2022/06/04 00:24:16;;;;;;;5.30;4.70;;;16.20;99.90;;;;;;5103011;28;21204;-83
2022/06/04 00:26:43;;;;;;;6.43;4.77;;;15.80;99.90;;;;;;5104250;28;20617;-87
2022/06/04 00:29:12;;;;;;;6.63;4.73;;;16.10;99.90;;;;;;5098175;28;20627;-87
2022/06/04 00:31:40;;;;;;;4.80;4.10;;;16.10;99.90;;;;;;5106500;28;21177;-86
2022/06/04 00:34:09;;;;;;;4.77;4.10;;;16.10;99.90;;;;;;5093866;28;20694;-87
2022/06/04 00:36:35;;;;;;;4.03;3.73;;;16.20;99.90;;;;;;5102537;28;20612;-86
2022/06/04 00:39:03;;;;;;;5.67;5.10;;;16.20;99.90;;;;;;5108272;28;20628;-85
2022/06/04 00:41:39;;;;;;;4.97;4.50;;;16.20;99.90;;;;;;5107421;28;20627;-86
2022/06/04 00:44:37;;;;;;;5.57;5.00;;;16.30;99.90;;;;;;5103607;28;20659;-86
2022/06/04 00:47:21;;;;;;;4.70;3.60;;;16.30;99.90;;;;;;5065910;28;20646;-85
2022/06/04 00:49:49;;;;;;;7.53;6.10;;;16.40;99.90;;;;;;5096218;28;21074;-85
2022/06/04 00:52:17;;;;;;;5.93;5.30;;;16.40;99.90;;;;;;5099708;28;20628;-87
2022/06/04 00:54:48;;;;;;;4.57;4.17;;;16.30;99.90;;;;;;5104873;28;20626;-84
2022/06/04 00:58:02;;;;;;;5.73;5.23;;;16.40;99.90;;;;;;5099295;28;20624;-84
2022/06/04 01:00:34;;;;;;;4.10;3.53;;;16.40;99.90;;;;;;5053582;28;20629;-86
2022/06/04 01:03:32;;;;;;;5.77;5.23;;;16.40;99.90;;;;;;5093207;28;20696;-85
2022/06/04 01:06:16;;;;;;;5.07;4.53;;;16.40;99.90;;;;;;5086652;28;20687;-85
2022/06/04 01:09:13;;;;;;;5.00;4.40;;;16.30;99.90;;;;;;5094276;28;20647;-86
2022/06/04 01:12:11;;;;;;;4.33;4.03;;;16.40;99.90;;;;;;5094316;28;20666;-85
2022/06/04 01:14:51;;;;;;;4.90;4.40;;;16.40;99.90;;;;;;5104552;28;20631;-86
2022/06/04 01:17:24;;;;;;;5.37;4.87;;;16.40;99.90;;;;;;5095627;28;20640;-85
2022/06/04 01:20:02;;;;;;;4.17;3.73;;;16.40;99.90;;;;;;5103173;28;20984;-87
2022/06/04 01:22:49;;;;;;;4.77;4.17;;;16.20;99.90;;;;;;5104759;28;20615;-84
2022/06/04 01:25:32;;;;;;;4.43;4.03;;;16.20;99.90;;;;;;5090727;28;20663;-86
2022/06/04 01:28:04;;;;;;;4.00;3.70;;;16.10;99.90;;;;;;5089497;28;20631;-85
2022/06/04 01:30:39;;;;;;;4.47;4.07;;;16.10;99.90;;;;;;5107446;28;20639;-86
2022/06/04 01:33:11;;;;;;;4.97;4.53;;;16.10;99.90;;;;;;5106132;28;20715;-86
2022/06/04 01:35:45;;;;;;;6.00;4.60;;;16.10;99.90;;;;;;5106275;28;20642;-87
2022/06/04 01:38:20;;;;;;;4.20;3.80;;;16.00;99.90;;;;;;5100329;28;20647;-86
2022/06/04 01:43:45;;;;;;;4.97;4.53;;;16.00;99.90;;;;;;5096538;28;20633;-86
2022/06/04 01:46:17;;;;;;;6.37;4.90;;;16.00;99.90;;;;;;5106950;28;20675;-85
2022/06/04 01:48:49;;;;;;;5.63;4.40;;;15.80;99.90;;;;;;5094754;28;20632;-85
2022/06/04 01:51:21;;;;;;;5.00;4.20;;;15.90;99.90;;;;;;5099135;28;21197;-82
2022/06/04 01:53:52;;;;;;;4.40;4.00;;;15.90;99.90;;;;;;5102260;28;20623;-84
2022/06/04 01:56:24;;;;;;;4.90;3.67;;;15.90;99.90;;;;;;5104351;28;20983;-86
2022/06/04 01:58:57;;;;;;;5.47;4.13;;;15.90;99.90;;;;;;5097022;28;20619;-85
2022/06/04 02:01:29;;;;;;;4.97;4.50;;;15.50;99.90;;;;;;5105112;27;20628;-85
2022/06/04 02:04:01;;;;;;;4.27;3.07;;;15.80;99.90;;;;;;5096106;28;20631;-86
2022/06/04 02:06:33;;;;;;;4.50;4.10;;;15.80;99.90;;;;;;5110541;28;21232;-86
2022/06/04 02:09:05;;;;;;;4.90;4.40;;;15.70;99.90;;;;;;5106043;28;20611;-86
2022/06/04 02:11:32;;;;;;;4.47;4.07;;;15.60;99.90;;;;;;5111519;28;20828;-85
2022/06/04 02:14:05;;;;;;;4.67;4.17;;;15.70;99.90;;;;;;5108320;28;20612;-85
2022/06/04 02:16:38;;;;;;;4.03;3.63;;;15.70;99.90;;;;;;5110077;28;21200;-86
2022/06/04 02:19:05;;;;;;;3.80;3.20;;;15.70;99.90;;;;;;5091909;28;20719;-84
2022/06/04 02:21:33;;;;;;;4.97;4.10;;;15.70;99.90;;;;;;5091497;28;20680;-85
2022/06/04 02:24:01;;;;;;;4.90;4.40;;;15.60;99.90;;;;;;5092888;28;20627;-85
2022/06/04 02:26:29;;;;;;;5.23;4.80;;;15.60;99.90;;;;;;5099461;28;20746;-84
2022/06/04 02:28:58;;;;;;;5.63;4.83;;;15.60;99.90;;;;;;5092916;28;20677;-85
2022/06/04 02:31:34;;;;;;;5.73;3.53;;;15.30;99.90;;;;;;5090736;28;20755;-86
2022/06/04 02:34:08;;;;;;;3.70;3.23;;;15.60;99.90;;;;;;5098742;28;20731;-86
2022/06/04 02:36:44;;;;;;;4.40;4.00;;;15.50;99.90;;;;;;5106390;28;20604;-85
2022/06/04 02:39:16;;;;;;;3.70;3.37;;;15.50;99.90;;;;;;5095450;28;20719;-86
2022/06/04 02:41:49;;;;;;;4.97;3.80;;;15.40;99.90;;;;;;5109059;28;20734;-84
2022/06/04 02:44:26;;;;;;;3.80;3.40;;;15.70;99.90;;;;;;5094418;28;20628;-85
2022/06/04 02:46:58;;;;;;;4.13;3.73;;;;;;;;;;5097497;28;21158;-86
2022/06/04 02:49:31;;;;;;;4.03;3.50;;;15.50;99.90;;;;;;5109015;28;20611;-84
2022/06/04 02:51:58;;;;;;;4.73;4.10;;;15.50;99.90;;;;;;5109400;28;20627;-84
2022/06/04 02:54:30;;;;;;;5.00;4.03;;;15.50;99.90;;;;;;5095390;28;20723;-85
2022/06/04 02:56:58;;;;;;;4.87;4.50;;;15.50;99.90;;;;;;5089647;28;20723;-84
2022/06/04 02:59:27;;;;;;;4.70;3.60;;;15.60;99.90;;;;;;5108496;28;20628;-83
2022/06/04 03:01:59;;;;;;;3.47;2.90;;;15.60;99.90;;;;;;5102414;28;20654;-86
2022/06/04 03:04:27;;;;;;;4.13;2.87;;;15.60;99.90;;;;;;5096656;28;21072;-85
2022/06/04 03:06:55;;;;;;;4.30;3.90;;;;;;;;;;5089790;28;20695;-86
2022/06/04 03:09:23;;;;;;;3.93;3.63;;;;;;;;;;5104728;28;20619;-84
2022/06/04 03:11:51;;;;;;;3.97;3.60;;;15.70;99.90;;;;;;5099884;28;21189;-84
2022/06/04 03:14:19;;;;;;;4.80;3.63;;;15.60;99.90;;;;;;5099075;28;20719;-83
2022/06/04 03:16:48;;;;;;;3.50;3.17;;;15.70;99.90;;;;;;5089967;28;20637;-84
2022/06/04 03:19:17;;;;;;;5.10;3.83;;;15.60;99.90;;;;;;5089523;28;20656;-85
2022/06/04 03:21:44;;;;;;;5.03;3.77;;;15.50;99.90;;;;;;5090959;28;20670;-84
2022/06/04 03:24:13;;;;;;;4.60;3.50;;;15.50;99.90;;;;;;5104363;28;20672;-85
2022/06/04 03:26:41;;;;;;;4.60;3.43;;;15.60;99.90;;;;;;5094907;28;20739;-83
2022/06/04 03:29:08;;;;;;;3.37;3.07;;;15.60;99.90;;;;;;5090748;28;20644;-85
2022/06/04 03:31:35;;;;;;;3.90;3.50;;;15.70;99.90;;;;;;5089728;28;21004;-86
2022/06/04 03:34:05;;;;;;;6.73;3.10;;;15.80;99.90;;;;;;5100329;28;20688;-84
2022/06/04 03:36:33;;;;;;;4.83;3.60;;;15.80;99.90;;;;;;5109174;28;20622;-84
2022/06/04 03:39:01;;;;;;;3.97;3.07;;;15.90;99.90;;;;;;5107327;28;20719;-84
2022/06/04 03:41:28;;;;;;;3.70;3.40;;;15.80;99.90;;;;;;5099607;28;20637;-86
2022/06/04 03:43:55;;;;;;;3.70;3.40;;;15.90;99.90;;;;;;5095137;28;20724;-84
2022/06/04 03:46:24;;;;;;;4.13;3.73;;;15.90;99.90;;;;;;5094287;28;20770;-84
2022/06/04 03:48:51;;;;;;;3.23;2.93;;;15.90;99.90;;;;;;5109451;28;20653;-84
2022/06/04 03:51:18;;;;;;;3.67;3.37;;;16.00;99.90;;;;;;5097687;28;20725;-85
2022/06/04 03:53:46;;;;;;;3.40;3.10;;;16.00;99.90;;;;;;5105350;28;20720;-84
2022/06/04 03:56:13;;;;;;;3.77;2.83;;;16.10;99.90;;;;;;5088756;28;20666;-85
2022/06/04 03:58:40;;;;;;;3.07;2.13;;;;;;;;;;5100942;28;20711;-85
2022/06/04 04:01:15;;;;;;;2.70;2.40;;;16.20;99.90;;;;;;5090698;28;21059;-82
2022/06/04 04:03:42;;;;;;;3.30;3.00;;;;;;;;;;5091568;28;20929;-85
2022/06/04 04:06:13;;;;;;;3.33;3.03;;;16.20;99.90;;;;;;5108447;28;20651;-86
2022/06/04 04:08:40;;;;;;;3.60;2.90;;;;;;;;;;5102785;28;20718;-85
2022/06/04 04:11:12;;;;;;;2.50;2.30;;;;;;;;;;5108827;28;20654;-84
2022/06/04 04:13:39;;;;;;;3.27;2.30;;;;;;;;;;5101935;28;20616;-85
2022/06/04 04:16:08;;;;;;;4.07;3.77;;;15.70;99.90;;;;;;5107561;28;20727;-85
2022/06/04 04:18:35;;;;;;;3.10;2.80;;;;;;;;;;5092201;28;20664;-85
2022/06/04 04:21:06;;;;;;;3.67;3.37;;;15.90;99.90;;;;;;5103768;28;20637;-83
2022/06/04 04:23:33;;;;;;;3.43;3.07;;;;;;;;;;5101344;28;20620;-85
2022/06/04 04:26:00;;;;;;;2.67;2.47;;;;;;;;;;5087915;28;20692;-84
2022/06/04 04:28:29;;;;;;;3.27;2.60;;;16.20;99.90;;;;;;5100672;28;20651;-85
2022/06/04 04:30:56;;;;;;;3.53;3.23;;;;;;;;;;5107607;28;20634;-86
2022/06/04 04:33:24;;;;;;;4.10;3.17;;;16.30;99.90;;;;;;5106867;28;20718;-84
2022/06/04 04:35:51;;;;;;;3.20;2.90;;;16.30;99.90;;;;;;5107167;28;20619;-85
2022/06/04 04:38:21;;;;;;;2.20;2.10;;;16.50;99.90;;;;;;5106867;28;20615;-86
2022/06/04 04:40:48;;;;;;;2.90;2.33;;;16.60;99.90;;;;;;5107061;28;20627;-84
2022/06/04 04:43:15;;;;;;;3.00;2.40;;;16.80;99.90;;;;;;5096547;28;20623;-85
2022/06/04 04:45:44;;;;;;;3.43;3.13;;;16.90;99.90;;;;;;5096385;28;20620;-84
2022/06/04 04:48:11;;;;;;;3.17;2.87;;;17.10;99.90;;;;;;5106800;28;20635;-86
2022/06/04 04:50:42;;;;;;;3.50;2.30;;;17.20;99.90;;;;;;5101543;28;20624;-84
2022/06/04 04:53:11;;;;;;;2.33;2.17;;;17.40;99.90;;;;;;5107679;28;21187;-86
2022/06/04 04:55:39;;;;;;;1.93;1.80;;;;;;;;;;5107862;28;20731;-84
2022/06/04 04:58:06;;;;;;;2.37;2.17;;;17.60;99.90;;;;;;5105358;28;20763;-86
2022/06/04 05:00:34;;;;;;;3.60;2.70;;;17.80;99.90;;;;;;5092253;28;20613;-85
2022/06/04 05:03:03;;;;;;;2.20;2.10;;;17.90;99.90;;;;;;5095033;28;20613;-85
2022/06/04 05:05:30;;;;;;;3.83;3.47;;;;;;;;;;5098867;28;20612;-84
2022/06/04 05:07:58;;;;;;;2.70;2.50;;;17.70;99.90;;;;;;5107418;28;20750;-84
2022/06/04 05:10:26;;;;;;;3.00;2.70;;;17.80;99.90;;;;;;5104125;28;20686;-84
2022/06/04 05:12:53;;;;;;;1.93;1.83;;;18.10;99.90;;;;;;5091944;28;20718;-85
2022/06/04 05:15:21;;;;;;;2.47;2.27;;;;;;;;;;5098661;28;20697;-84
2022/06/04 05:17:48;;;;;;;2.90;2.53;;;;;;;;;;5103493;28;20663;-83
2022/06/04 05:20:19;;;;;;;2.70;2.30;;;;;;;;;;5107241;28;20742;-84
2022/06/04 05:22:46;;;;;;;3.00;2.60;;;;;;;;;;5103695;28;20628;-86
2022/06/04 05:25:13;;;;;;;2.83;2.63;;;;;;;;;;5107007;28;21044;-87
2022/06/04 05:27:40;;;;;;;2.37;2.17;;;;;;;;;;5107817;28;20781;-84
2022/06/04 05:30:08;;;;;;;3.23;3.00;;;17.90;99.90;;;;;;5094453;28;20714;-86
2022/06/04 05:32:35;;;;;;;2.73;2.53;;;;;;;;;;5094670;28;20745;-85
2022/06/04 05:35:02;;;;;;;2.70;2.00;;;18.00;99.90;;;;;;5111637;28;20619;-85
2022/06/04 05:37:30;;;;;;;3.23;2.87;;;18.00;99.90;;;;;;5099015;28;20652;-85
2022/06/04 05:39:58;;;;;;;3.10;2.77;;;;;;;;;;5092683;28;21240;-83
2022/06/04 05:42:25;;;;;;;4.40;1.90;;;;;;;;;;5099349;28;21221;-86
2022/06/04 05:44:53;;;;;;;2.27;2.17;;;;;;;;;;5092612;28;20628;-85
2022/06/04 05:47:20;;;;;;;3.37;2.47;;;18.20;99.90;;;;;;5091941;28;20695;-85
2022/06/04 05:49:47;;;;;;;2.20;2.00;;;18.30;99.90;;;;;;5093233;28;20728;-85
2022/06/04 05:52:14;;;;;;;2.37;1.90;;;18.30;99.90;;;;;;5094262;28;20736;-84
2022/06/04 05:54:42;;;;;;;2.37;1.87;;;18.30;99.90;;;;;;5091364;28;20966;-86
2022/06/04 05:57:09;;;;;;;2.53;2.30;;;18.30;99.90;;;;;;5094254;28;20660;-86
2022/06/04 05:59:36;;;;;;;1.87;1.77;;;18.30;99.90;;;;;;5101849;28;20742;-85
2022/06/04 06:02:04;;;;;;;2.27;2.07;;;18.30;99.90;;;;;;5097991;28;21544;-83
2022/06/04 06:04:31;;;;;;;2.90;2.20;;;18.30;99.90;;;;;;5098233;28;20640;-85
2022/06/04 06:07:00;;;;;;;1.90;1.80;;;18.30;99.90;;;;;;5091196;28;20644;-85
2022/06/04 06:09:27;;;;;;;3.30;2.17;;;18.30;99.90;;;;;;5103317;28;20634;-84
2022/06/04 06:11:56;;;;;;;3.20;2.10;;;18.20;99.90;;;;;;5104923;28;20666;-85
2022/06/04 06:14:24;;;;;;;2.50;1.90;;;17.90;99.90;;;;;;5090593;28;21070;-84
2022/06/04 06:16:52;;;;;;;2.10;1.47;;;17.90;99.90;;;;;;5089654;28;20642;-85
2022/06/04 06:19:21;;;;;;;2.20;2.00;;;17.70;99.90;;;;;;5090628;28;21051;-85
2022/06/04 06:21:48;;;;;;;1.70;1.60;;;17.50;99.90;;;;;;5090438;28;20711;-85
2022/06/04 06:24:17;;;;;;;3.53;2.10;;;17.60;99.90;;;;;;5090515;28;20701;-85
2022/06/04 06:26:48;;;;;;;2.57;2.37;;;17.40;99.90;;;;;;5089588;28;20704;-84
2022/06/04 06:29:18;;;;;;;3.47;1.90;;;17.80;99.90;;;;;;5089628;28;20624;-85
2022/06/04 06:31:45;;;;;;;3.40;2.77;;;17.40;99.90;;;;;;5090457;28;20623;-86
2022/06/04 06:34:12;;;;;;;3.17;2.97;;;17.40;99.90;;;;;;5090506;28;20622;-85
2022/06/04 06:36:39;;;;;;;3.00;2.10;;;17.40;99.90;;;;;;5104530;28;20684;-84
2022/06/04 06:39:06;;;;;;;2.77;2.57;;;;;;;;;;5096471;28;21244;-85
2022/06/04 06:41:34;;;;;;;3.03;2.73;;;17.40;99.90;;;;;;5109976;28;20710;-85
2022/06/04 06:44:01;;;;;;;2.67;2.27;;;17.40;99.90;;;;;;5100342;28;20632;-86
2022/06/04 06:46:33;;;;;;;4.03;2.90;;;17.50;99.90;;;;;;5097521;28;21037;-85
2022/06/04 06:49:02;;;;;;;3.00;2.27;;;17.50;99.90;;;;;;5091478;28;21533;-87
2022/06/04 06:51:31;;;;;;;3.63;3.07;;;17.50;99.90;;;;;;5103617;28;21192;-88
2022/06/04 06:53:59;;;;;;;2.60;2.40;;;17.60;99.90;;;;;;5109911;28;20664;-87
2022/06/04 06:56:28;;;;;;;2.63;2.37;;;17.60;99.90;;;;;;5110537;28;20671;-89
2022/06/04 06:58:56;;;;;;;2.63;2.27;;;17.60;99.90;;;;;;5108417;28;20696;-90
2022/06/04 07:01:25;;;;;;;4.57;4.13;;;17.60;99.90;;;;;;5107958;28;20651;-90
2022/06/04 07:03:55;;;;;;;3.87;3.47;;;17.70;99.90;;;;;;5109616;28;20817;-89
2022/06/04 07:06:31;;;;;;;7.17;5.27;;;17.80;99.90;;;;;;5108375;28;20721;-88
2022/06/04 07:08:58;;;;;;;7.33;5.43;;;17.80;99.90;;;;;;5108271;28;20702;-90
2022/06/04 07:11:26;;;;;;;6.10;5.47;;;17.80;99.90;;;;;;5109713;28;20636;-91
2022/06/04 07:13:53;;;;;;;6.73;4.93;;;17.80;99.90;;;;;;5098592;28;20614;-89
2022/06/04 07:16:22;;;;;;;5.80;5.00;;;17.70;99.90;;;;;;5090125;28;21262;-90
2022/06/04 07:18:50;;;;;;;3.73;3.23;;;;;;;;;;5091969;28;20621;-91
2022/06/04 07:21:19;;;;;;;3.73;3.30;;;17.70;99.90;;;;;;5091456;28;20647;-90
2022/06/04 07:23:46;;;;;;;4.23;3.70;;;;;;;;;;5091563;28;20684;-91
2022/06/04 07:26:13;;;;;;;4.13;3.40;;;;;;;;;;5092255;28;20657;-90
2022/06/04 07:28:40;;;;;;;2.53;2.33;;;17.70;99.90;;;;;;5092304;28;20658;-89
2022/06/04 07:31:09;;;;;;;3.60;3.23;;;17.90;99.90;;;;;;5091496;28;20658;-90
2022/06/04 07:33:36;;;;;;;3.00;2.80;;;17.90;99.90;;;;;;5091923;28;20798;-89
2022/06/04 07:36:04;;;;;;;4.03;3.57;;;18.10;99.90;;;;;;5101844;28;20643;-90
2022/06/04 07:38:34;;;;;;;3.50;3.10;;;18.40;99.90;;;;;;5108638;28;20608;-90
2022/06/04 07:41:01;;;;;;;3.03;2.80;;;;;;;;;;5110055;28;20623;-90
2022/06/04 07:43:29;;;;;;;3.20;3.00;;;;;;;;;;5098432;28;20608;-91
2022/06/04 07:45:56;;;;;;;3.20;2.73;;;;;;;;;;5092929;28;21186;-90
2022/06/04 07:48:23;;;;;;;2.63;2.17;;;;;;;;;;5110501;28;21296;-90
2022/06/04 07:50:50;;;;;;;2.90;2.70;;;;;;;;;;5109288;28;20699;-90
2022/06/04 07:53:18;;;;;;;2.87;2.67;;;;;;;;;;5101364;28;20620;-90
2022/06/04 07:55:46;;;;;;;2.80;2.60;;;19.10;99.90;;;;;;5088289;28;20608;-89
2022/06/04 07:58:13;;;;;;;4.60;3.57;;;18.80;99.90;;;;;;5093195;28;21231;-88
2022/06/04 08:00:40;;;;;;;3.00;2.77;;;19.00;99.90;;;;;;5101349;28;20628;-89
2022/06/04 08:03:08;;;;;;;4.03;3.63;;;19.00;99.90;;;;;;5103984;28;20619;-87
2022/06/04 08:05:36;;;;;;;3.77;3.13;;;19.00;99.90;;;;;;5089434;28;21250;-89
2022/06/04 08:08:03;;;;;;;3.30;2.70;;;;;;;;;;5104726;28;20720;-89
2022/06/04 08:10:30;;;;;;;3.17;2.90;;;18.90;99.90;;;;;;5107955;27;21208;-89
2022/06/04 08:12:59;;;;;;;3.43;3.20;;;19.10;99.90;;;;;;5101327;28;21022;-90
2022/06/04 08:15:26;;;;;;;3.97;3.27;;;19.30;99.90;;;;;;5108125;28;20957;-88
2022/06/04 08:17:53;;;;;;;6.33;3.40;;;19.60;99.90;;;;;;5106967;28;21000;-89
2022/06/04 08:20:21;;;;;;;4.40;3.97;;;19.80;99.90;;;;;;5093875;28;20823;-89
2022/06/04 08:22:48;;;;;;;3.40;3.03;;;20.00;99.90;;;;;;5108693;28;21010;-89
2022/06/04 08:25:16;;;;;;;4.07;3.27;;;;;;;;;;5091831;28;20608;-87
2022/06/04 08:27:44;;;;;;;3.43;3.10;;;19.80;99.90;;;;;;5093080;28;20705;-88
2022/06/04 08:30:14;;;;;;;2.93;2.73;;;19.80;99.90;;;;;;5089379;28;20620;-88
2022/06/04 08:32:41;;;;;;;3.43;3.07;;;20.10;99.90;;;;;;5105735;28;20619;-87
2022/06/04 08:35:08;;;;;;;3.73;3.00;;;20.20;99.90;;;;;;5104989;28;20616;-88
2022/06/04 08:37:35;;;;;;;2.83;2.63;;;20.20;99.90;;;;;;5107114;28;21257;-88
2022/06/04 08:40:02;;;;;;;5.17;3.90;;;20.00;99.90;;;;;;5090402;28;21278;-88
2022/06/04 08:42:41;;;;;;;3.90;3.60;;;20.20;99.90;;;;;;5108703;28;20676;-88
2022/06/04 08:45:11;;;;;;;3.60;3.33;;;20.50;99.90;;;;;;5089696;28;20656;-88
2022/06/04 08:47:44;;;;;;;2.70;2.50;;;20.30;99.90;;;;;;5108958;28;20925;-87
2022/06/04 08:50:18;;;;;;;4.80;3.83;;;20.40;99.90;;;;;;5098088;28;20615;-88
2022/06/04 08:52:48;;;;;;;3.50;3.23;;;20.40;99.90;;;;;;5094995;28;20638;-87
2022/06/04 08:58:15;;;;;;;3.57;3.27;;;20.70;99.90;;;;;;5099879;28;20663;-87
2022/06/04 09:00:48;;;;;;;4.10;3.73;;;20.80;99.90;;;;;;5088828;28;21109;-87
2022/06/04 09:03:21;;;;;;;3.40;3.07;;;20.80;99.90;;;;;;5103921;28;20623;-86
2022/06/04 09:06:11;;;;;;;2.73;2.53;;;20.90;99.90;;;;;;5087663;28;20627;-87
2022/06/04 09:08:51;;;;;;;3.40;3.10;;;21.10;99.90;;;;;;5097488;28;20716;-86
2022/06/04 09:11:23;;;;;;;2.30;2.10;;;21.10;99.90;;;;;;5098271;28;20636;-87
2022/06/04 09:14:03;;;;;;;2.70;2.50;;;21.20;99.90;;;;;;5102742;28;21142;-88
2022/06/04 09:16:36;;;;;;;2.97;2.50;;;21.20;99.90;;;;;;5110911;28;20684;-88
2022/06/04 09:19:11;;;;;;;2.27;2.17;;;21.30;99.90;;;;;;5092412;28;20786;-88
2022/06/04 09:21:39;;;;;;;2.90;2.70;;;21.40;99.90;;;;;;5105320;28;20971;-87
2022/06/04 09:24:06;;;;;;;2.53;2.23;;;21.50;99.90;;;;;;5100807;28;20624;-85
2022/06/04 09:26:38;;;;;;;2.97;2.73;;;21.60;99.90;;;;;;5093584;28;20719;-86
2022/06/04 09:29:23;;;;;;;3.07;2.53;;;21.90;99.90;;;;;;5095235;28;21214;-87
2022/06/04 09:31:59;;;;;;;3.07;2.67;;;22.20;99.90;;;;;;5093234;28;20628;-86
2022/06/04 09:34:31;;;;;;;2.27;2.07;;;22.30;99.90;;;;;;5098522;28;20743;-88
2022/06/04 09:36:59;;;;;;;2.33;2.13;;;22.20;99.90;;;;;;5110334;28;20639;-87
2022/06/04 09:39:28;;;;;;;3.47;2.17;;;22.10;99.90;;;;;;5101192;28;20678;-87
2022/06/04 09:41:57;;;;;;;2.87;1.90;;;22.50;99.90;;;;;;5106198;28;21251;-87
2022/06/04 09:44:26;;;;;;;2.40;2.20;;;21.80;99.90;;;;;;5101069;28;20969;-87
2022/06/04 09:47:00;;;;;;;1.77;1.67;;;22.00;99.90;;;;;;5111298;28;20599;-87
2022/06/04 09:49:36;;;;;;;2.60;2.13;;;22.00;99.90;;;;;;5109929;27;20662;-87
2022/06/04 09:52:21;;;;;;;3.10;2.63;;;22.50;99.90;;;;;;5112158;28;20670;-87
2022/06/04 09:54:53;;;;;;;2.83;2.57;;;22.50;99.90;;;;;;5107420;28;20990;-86
2022/06/04 09:57:29;;;;;;;2.87;2.60;;;22.70;99.90;;;;;;5102101;28;20699;-87
2022/06/04 09:59:57;;;;;;;2.97;2.77;;;22.50;99.90;;;;;;5106411;28;20634;-87
2022/06/04 10:02:25;;;;;;;2.90;2.70;;;22.60;99.90;;;;;;5091752;28;20659;-88
2022/06/04 10:05:03;;;;;;;5.37;4.00;;;22.30;99.90;;;;;;5092739;28;20728;-88
2022/06/04 10:07:33;;;;;;;3.80;3.50;;;21.70;99.90;;;;;;5090521;28;20731;-87
2022/06/04 10:10:02;;;;;;;3.70;3.40;;;21.70;99.90;;;;;;5092580;28;20647;-87
2022/06/04 10:15:30;;;;;;;3.93;3.53;;;21.40;99.90;;;;;;5091421;28;20624;-86
2022/06/04 10:18:04;;;;;;;4.00;3.37;;;21.10;99.90;;;;;;5089005;28;20631;-87
2022/06/04 10:20:33;;;;;;;3.27;3.00;;;21.10;99.90;;;;;;5091144;28;20763;-87
2022/06/04 10:23:00;;;;;;;2.97;2.67;;;;;;;;;;5091646;28;20624;-88
2022/06/04 10:25:34;;;;;;;2.60;2.40;;;21.10;99.90;;;;;;5092612;28;20635;-87
2022/06/04 10:28:14;;;;;;;5.33;3.97;;;21.10;99.90;;;;;;5092042;28;20651;-87
2022/06/04 10:30:50;;;;;;;3.53;3.20;;;21.20;99.90;;;;;;5093608;28;20752;-87
2022/06/04 10:33:24;;;;;;;3.90;3.10;;;21.20;99.90;;;;;;5096354;28;21177;-87
2022/06/04 10:36:01;;;;;;;4.23;3.90;;;21.50;99.90;;;;;;5094212;28;20628;-87
2022/06/04 10:38:36;;;;;;;4.37;4.03;;;21.20;99.90;;;;;;5094458;28;20604;-87
2022/06/04 10:41:13;;;;;;;4.93;4.53;;;21.30;99.90;;;;;;5104673;28;21098;-87
2022/06/04 10:43:57;;;;;;;4.50;4.10;;;21.30;99.90;;;;;;5113975;28;21024;-87
2022/06/04 10:46:30;;;;;;;5.97;4.57;;;21.20;99.90;;;;;;5114919;28;20964;-87
2022/06/04 10:49:14;;;;;;;5.77;5.27;;;21.40;99.90;;;;;;5113869;28;20682;-87
2022/06/04 10:51:51;;;;;;;4.80;4.40;;;21.40;99.90;;;;;;5114946;28;20607;-87
2022/06/04 10:54:28;;;;;;;4.23;3.87;;;21.10;99.90;;;;;;5114086;28;20615;-87
2022/06/04 10:56:59;;;;;;;4.07;3.77;;;21.10;99.90;;;;;;5112534;27;20646;-87
2022/06/04 10:59:32;;;;;;;4.90;3.87;;;18.40;99.90;;;;;;5110839;28;20658;-86
2022/06/04 11:02:05;;;;;;;3.47;3.17;;;20.80;99.90;;;;;;5117431;28;20618;-88
2022/06/04 11:04:40;;;;;;;4.00;3.60;;;20.60;99.90;;;;;;5116278;28;20684;-86
2022/06/04 11:07:28;;;;;;;4.67;3.67;;;20.80;99.90;;;;;;5113840;28;20676;-86
2022/06/04 11:09:56;;;;;;;4.00;3.60;;;;;;;;;;5113175;28;20647;-86
2022/06/04 11:12:34;;;;;;;4.13;3.37;;;20.50;99.90;;;;;;5111983;28;20722;-86
2022/06/04 11:15:07;;;;;;;2.90;2.60;;;20.30;99.90;;;;;;5112908;28;20627;-86
2022/06/04 11:17:43;;;;;;;3.40;3.03;;;20.20;99.90;;;;;;5111567;28;20684;-87
2022/06/04 11:20:14;;;;;;;3.43;3.10;;;20.10;99.90;;;;;;5113189;28;20648;-85
2022/06/04 11:22:48;;;;;;;3.50;3.20;;;20.20;99.90;;;;;;5112824;28;20604;-87
2022/06/04 11:25:25;;;;;;;3.40;3.10;;;20.30;99.90;;;;;;5113491;28;20619;-87
2022/06/04 11:27:55;;;;;;;3.90;2.87;;;20.40;99.90;;;;;;5114823;28;20667;-87
2022/06/04 11:30:34;;;;;;;4.90;3.83;;;20.60;99.90;;;;;;5112748;28;20643;-87
2022/06/04 11:33:13;;;;;;;4.93;4.20;;;20.40;99.90;;;;;;5113595;28;20599;-87
2022/06/04 11:35:45;;;;;;;6.53;4.40;;;20.40;99.90;;;;;;5112024;28;20657;-87
2022/06/04 11:38:28;;;;;;;3.67;3.37;;;20.40;99.90;;;;;;5113647;28;20626;-86
2022/06/04 11:41:08;;;;;;;5.20;3.67;;;20.50;99.90;;;;;;5113829;28;20658;-88
2022/06/04 11:43:49;;;;;;;4.03;3.23;;;20.60;99.90;;;;;;5112017;28;20623;-87
2022/06/04 11:46:30;;;;;;;4.80;4.20;;;20.40;99.90;;;;;;5111256;28;20611;-87
2022/06/04 11:49:16;;;;;;;4.30;4.00;;;20.40;99.90;;;;;;5111770;28;20675;-86
2022/06/04 11:52:13;;;;;;;5.47;3.67;;;20.50;99.90;;;;;;5111667;28;20607;-87
2022/06/04 11:55:12;;;;;;;4.90;4.50;;;20.60;99.90;;;;;;5111910;28;20672;-86
2022/06/04 11:57:51;;;;;;;4.13;3.63;;;20.60;99.90;;;;;;5111717;28;20707;-85
2022/06/04 12:00:24;;;;;;;5.70;4.80;;;20.60;99.90;;;;;;5113800;28;20619;-87
2022/06/04 12:02:59;;;;;;;6.47;5.63;;;20.70;99.90;;;;;;5113337;28;20618;-87
2022/06/04 12:05:39;;;;;;;4.23;3.83;;;20.80;99.90;;;;;;5112542;28;20619;-85
2022/06/04 12:08:08;;;;;;;5.37;4.83;;;20.90;99.90;;;;;;5112494;28;20703;-86
2022/06/04 12:10:51;;;;;;;6.60;5.03;;;21.00;99.90;;;;;;5112739;28;20684;-88
2022/06/04 12:13:26;;;;;;;9.10;6.13;;;21.50;99.90;;;;;;5111792;28;21199;-87
2022/06/04 12:15:58;;;;;;;8.07;6.00;;;21.50;99.90;;;;;;5111704;28;20650;-87
2022/06/04 12:18:29;;;;;;;7.13;6.40;;;21.60;99.90;;;;;;5111999;28;20662;-87
2022/06/04 12:26:33;;;;;;;5.30;4.80;;;23.20;99.90;;;;;;5111565;28;20596;-86
2022/06/04 12:29:01;;;;;;;6.73;5.50;;;24.70;99.90;;;;;;5110631;28;20647;-88
2022/06/04 12:31:36;;;;;;;5.90;5.37;;;26.40;96.90;;;;;;5111700;28;21161;-87
2022/06/04 12:34:04;;;;;;;5.40;5.00;;;27.70;93.50;;;;;;5111137;28;20726;-88
2022/06/04 12:36:34;;;;;;;5.07;4.67;;;28.60;91.10;;;;;;5110540;28;20670;-86
2022/06/04 12:39:05;;;;;;;4.93;4.50;;;28.30;90.30;;;;;;5110160;28;20616;-88
2022/06/04 12:41:49;;;;;;;5.40;5.00;;;27.90;92.00;;;;;;5110351;28;20680;-87
2022/06/04 12:44:21;;;;;;;5.20;4.73;;;27.70;87.10;;;;;;5108297;28;20641;-86
2022/06/04 12:46:49;;;;;;;5.73;5.23;;;;;;;;;;5110094;28;20708;-88
2022/06/04 12:49:32;;;;;;;4.93;4.43;;;28.50;85.50;;;;;;5110686;28;20690;-88
2022/06/04 12:52:07;;;;;;;5.77;5.30;;;29.30;89.80;;;;;;5111624;28;20639;-88
2022/06/04 12:54:48;;;;;;;5.63;5.10;;;29.30;83.40;;;;;;5111605;28;20637;-89
2022/06/04 12:57:31;;;;;;;5.53;5.03;;;30.00;79.70;;;;;;5110385;28;21072;-88
2022/06/04 13:00:22;;;;;;;5.03;4.63;;;30.80;76.80;;;;;;5110457;28;20634;-88
2022/06/04 13:03:37;;;;;;;5.40;4.97;;;31.00;73.40;;;;;;5109659;28;21225;-88
2022/06/04 13:06:21;;;;;;;8.57;6.40;;;32.00;70.00;;;;;;5110296;28;21207;-88
2022/06/04 13:08:55;;;;;;;5.10;4.70;;;31.90;67.70;;;;;;5110148;28;20655;-89
2022/06/04 13:11:41;;;;;;;6.30;5.70;;;30.40;70.80;;;;;;5109864;28;20673;-89
2022/06/04 13:14:19;;;;;;;5.33;4.90;;;30.60;77.40;;;;;;5110564;28;20611;-88
2022/06/04 13:16:49;;;;;;;4.33;4.03;;;30.30;73.40;;;;;;5109621;28;20721;-88
2022/06/04 13:19:46;;;;;;;5.57;5.07;;;31.00;70.60;;;;;;5109818;28;20690;-89
2022/06/04 13:22:20;;;;;;;4.23;3.83;;;31.20;66.80;;;;;;5099634;28;20692;-88
2022/06/04 13:24:48;;;;;;;5.60;5.10;;;31.40;67.10;;;;;;5109275;28;20657;-87
2022/06/04 13:27:20;;;;;;;4.90;4.60;;;31.90;64.50;;;;;;5110988;28;20623;-89
2022/06/04 13:29:56;;;;;;;4.70;4.27;;;31.90;65.30;;;;;;5110809;28;20643;-87
2022/06/04 13:32:23;;;;;;;4.30;4.00;;;32.80;61.40;;;;;;5110810;28;20614;-88
2022/06/04 13:34:50;;;;;;;5.60;5.20;;;33.00;61.70;;;;;;5110876;28;20747;-87
2022/06/04 13:37:21;;;;;;;4.33;4.03;;;33.10;60.80;;;;;;5110254;28;20611;-88
2022/06/04 13:39:49;;;;;;;4.97;4.57;;;33.00;59.40;;;;;;5110972;28;20640;-87
2022/06/04 13:42:23;;;;;;;4.67;4.37;;;31.80;61.80;;;;;;5110625;28;20722;-87
2022/06/04 13:44:57;;;;;;;4.07;3.70;;;31.60;63.70;;;;;;5110511;28;20624;-88